Westwego, LA (70096)

7:23 PM CDT on August 29, 2014 (GMT -0500)
Uptown | Change Station
CLOSE
Current Station
Personal Weather Station
Location: New Orleans, LA
Elevation: 20 ft
Nearby Weather Stations

Elev 20 ft 29.93 °N, 90.12 °W | Updated 33 seconds ago

Overcast
Overcast
78.4 °F
Feels Like 82 °F
N
3.1
Wind Variable Wind from ENE
Gusts 4.7 mph

Today
High -- | Low -- °F
--% Chance of Precip.
Yesterday
High -- | Low -- °F
Precip. -- in
6:36 AM 7:26 PM
Waxing Crescent, 17% visible
Pressure 29.94 in
Visibility 7.0 miles
Clouds Scattered Clouds 4000 ft
Mostly Cloudy 9000 ft
Overcast 25000 ft
Heat Index 82 °F
Dew Point 78 °F
Humidity 100%
Rainfall 0.08 in
Snow Depth Not available.
UV 0 out of 12
Pollen 6.20 out of 12
Ozone Good
PM2.5 Good
Flu Activity Not available.
METAR KNBG 292355Z 12006KT 7SM -RA SCT040 BKN090 OVC250 27/24 A2994 RMK AO2 SLP136 P0000 60002 T02670239 10267 20244 58008 $

More Conditions Fewer Conditions

Pressure 29.94 in
Visibility 7.0 miles
Clouds Scattered Clouds 4000 ft
Mostly Cloudy 9000 ft
Overcast 25000 ft
Heat Index 82 °F
Dew Point 78 °F
Humidity 100%
Rainfall 0.08 in
Snow Depth Not available.
UV 0 out of 12
Pollen 6.20 out of 12
Ozone Good
PM2.5 Good
Flu Activity Not available.
METAR KNBG 292355Z 12006KT 7SM -RA SCT040 BKN090 OVC250 27/24 A2994 RMK AO2 SLP136 P0000 60002 T02670239 10267 20244 58008 $

More Conditions Fewer Conditions

10-Day Weather Forecast

Almanac

Astronomy

Aug. 29, 2014 Rise Set
Actual Time 6:36 AM CDT 7:26 PM CDT
Civil Twilight 6:11 AM CDT 7:50 PM CDT
Nautical Twilight 5:42 AM CDT 8:19 PM CDT
Astronomical Twilight 5:13 AM CDT 8:49 PM CDT
Moon 10:05 AM CDT (8/29) 9:45 PM CDT (8/29)
Length of Visible Light 13h 39m
Length of Day
12h 50m
Tomorrow will be 1m 43s shorter.
Waxing Crescent, 17% of the Moon is Illuminated
Today
Waxing Crescent
Sep 2
First Quarter
Sep 8
Full
Sep 15
Last Quarter
Sep 24
New

Today's Extremes

State Highs State Lows

Community

WunderPhotos

Upload Photos

1,748,384 photos uploaded!

Nearby

Air Quality

  Air Quality AQ Index Pollutant
Yesterday Good
OZONE
Yesterday Good
PM2.5
Current Good
OZONE
Current Good
PM2.5
Friday Good
PM2.5
Friday Good
OZONE
Saturday Good
PM2.5
Saturday Good
OZONE
Sunday Good
PM2.5
Sunday Good
OZONE

Snow Depth

Station Depth Elevation
No new snow has been reported.

Earthquake Activity

City Distance Mag. Time & Date
No recent earthquake activity has been reported nearby.
Minimum magnitude displayed is 2.5.

Coastal Water Temperatures

Place Temperature
New Canal, LA 82.9 °F
Shell Beach, LA 81.0 °F
Bayou Gauche, LA 84.0 °F

Nearby Weather Stations